sensor_id;sensor_type;location;lat;lon;timestamp;P1;durP1;ratioP1;P2;durP2;ratioP2
15049;SDS011;7622;42.724;23.250;2024-02-16T00:14:56;12.03;;;8.97;;
15049;SDS011;7622;42.724;23.250;2024-02-16T00:17:23;17.07;;;10.17;;
15049;SDS011;7622;42.724;23.250;2024-02-16T00:19:51;20.00;;;10.67;;
15049;SDS011;7622;42.724;23.250;2024-02-16T00:22:18;20.10;;;11.13;;
15049;SDS011;7622;42.724;23.250;2024-02-16T00:24:45;16.90;;;10.83;;
15049;SDS011;7622;42.724;23.250;2024-02-16T00:27:13;15.67;;;9.93;;
15049;SDS011;7622;42.724;23.250;2024-02-16T00:29:40;16.37;;;11.53;;
15049;SDS011;7622;42.724;23.250;2024-02-16T00:32:08;17.33;;;10.50;;
15049;SDS011;7622;42.724;23.250;2024-02-16T00:34:35;18.37;;;11.47;;
15049;SDS011;7622;42.724;23.250;2024-02-16T00:37:02;18.33;;;11.27;;
15049;SDS011;7622;42.724;23.250;2024-02-16T00:39:33;15.60;;;10.53;;
15049;SDS011;7622;42.724;23.250;2024-02-16T00:41:59;15.37;;;11.13;;
15049;SDS011;7622;42.724;23.250;2024-02-16T00:44:26;17.00;;;11.10;;
15049;SDS011;7622;42.724;23.250;2024-02-16T00:46:52;16.57;;;10.27;;
15049;SDS011;7622;42.724;23.250;2024-02-16T00:49:20;12.93;;;9.87;;
15049;SDS011;7622;42.724;23.250;2024-02-16T00:51:47;13.77;;;9.63;;
15049;SDS011;7622;42.724;23.250;2024-02-16T00:54:15;16.67;;;10.27;;
15049;SDS011;7622;42.724;23.250;2024-02-16T00:56:42;11.67;;;9.70;;
15049;SDS011;7622;42.724;23.250;2024-02-16T00:59:09;14.13;;;9.63;;
15049;SDS011;7622;42.724;23.250;2024-02-16T01:01:36;14.13;;;9.23;;
15049;SDS011;7622;42.724;23.250;2024-02-16T01:04:02;13.80;;;9.50;;
15049;SDS011;7622;42.724;23.250;2024-02-16T01:06:30;16.33;;;9.40;;
15049;SDS011;7622;42.724;23.250;2024-02-16T01:08:57;14.20;;;9.53;;
15049;SDS011;7622;42.724;23.250;2024-02-16T01:11:24;15.03;;;9.57;;
15049;SDS011;7622;42.724;23.250;2024-02-16T01:13:50;12.67;;;7.87;;
15049;SDS011;7622;42.724;23.250;2024-02-16T01:16:17;13.60;;;8.73;;
15049;SDS011;7622;42.724;23.250;2024-02-16T01:18:44;13.97;;;8.17;;
15049;SDS011;7622;42.724;23.250;2024-02-16T01:21:11;11.50;;;7.90;;
15049;SDS011;7622;42.724;23.250;2024-02-16T01:23:39;11.73;;;8.87;;
15049;SDS011;7622;42.724;23.250;2024-02-16T01:26:05;11.07;;;8.40;;
15049;SDS011;7622;42.724;23.250;2024-02-16T01:28:32;14.10;;;8.40;;
15049;SDS011;7622;42.724;23.250;2024-02-16T01:30:59;9.33;;;8.33;;
15049;SDS011;7622;42.724;23.250;2024-02-16T01:33:25;14.50;;;9.07;;
15049;SDS011;7622;42.724;23.250;2024-02-16T01:35:54;11.93;;;8.13;;
15049;SDS011;7622;42.724;23.250;2024-02-16T01:38:21;8.43;;;7.43;;
15049;SDS011;7622;42.724;23.250;2024-02-16T01:40:50;10.30;;;8.00;;
15049;SDS011;7622;42.724;23.250;2024-02-16T01:43:18;10.53;;;8.33;;
15049;SDS011;7622;42.724;23.250;2024-02-16T01:45:46;14.63;;;7.33;;
15049;SDS011;7622;42.724;23.250;2024-02-16T01:48:12;12.80;;;7.83;;
15049;SDS011;7622;42.724;23.250;2024-02-16T01:50:41;10.43;;;7.87;;
15049;SDS011;7622;42.724;23.250;2024-02-16T01:53:09;11.40;;;7.67;;
15049;SDS011;7622;42.724;23.250;2024-02-16T01:55:37;9.30;;;7.93;;
15049;SDS011;7622;42.724;23.250;2024-02-16T01:58:05;14.67;;;8.73;;
15049;SDS011;7622;42.724;23.250;2024-02-16T02:00:32;9.77;;;7.73;;
15049;SDS011;7622;42.724;23.250;2024-02-16T02:02:59;10.07;;;7.50;;
15049;SDS011;7622;42.724;23.250;2024-02-16T02:05:26;10.63;;;7.37;;
15049;SDS011;7622;42.724;23.250;2024-02-16T02:07:52;12.23;;;8.10;;
15049;SDS011;7622;42.724;23.250;2024-02-16T02:10:19;10.37;;;7.67;;
15049;SDS011;7622;42.724;23.250;2024-02-16T02:12:47;12.47;;;7.90;;
15049;SDS011;7622;42.724;23.250;2024-02-16T02:15:15;11.23;;;7.90;;
15049;SDS011;7622;42.724;23.250;2024-02-16T02:17:42;11.50;;;8.00;;
15049;SDS011;7622;42.724;23.250;2024-02-16T02:20:09;12.50;;;7.93;;
15049;SDS011;7622;42.724;23.250;2024-02-16T02:22:38;11.50;;;8.07;;
15049;SDS011;7622;42.724;23.250;2024-02-16T02:25:04;12.17;;;8.17;;
15049;SDS011;7622;42.724;23.250;2024-02-16T02:27:32;12.30;;;7.93;;
15049;SDS011;7622;42.724;23.250;2024-02-16T02:29:59;9.40;;;6.93;;
15049;SDS011;7622;42.724;23.250;2024-02-16T02:32:25;16.37;;;8.43;;
15049;SDS011;7622;42.724;23.250;2024-02-16T02:34:53;9.87;;;8.40;;
15049;SDS011;7622;42.724;23.250;2024-02-16T02:37:20;11.47;;;8.27;;
15049;SDS011;7622;42.724;23.250;2024-02-16T02:39:50;11.60;;;8.27;;
15049;SDS011;7622;42.724;23.250;2024-02-16T02:42:19;8.97;;;7.93;;
15049;SDS011;7622;42.724;23.250;2024-02-16T02:44:49;12.57;;;9.03;;
15049;SDS011;7622;42.724;23.250;2024-02-16T02:47:16;10.03;;;7.70;;
15049;SDS011;7622;42.724;23.250;2024-02-16T02:49:43;9.67;;;7.63;;
15049;SDS011;7622;42.724;23.250;2024-02-16T02:52:10;10.07;;;7.63;;
15049;SDS011;7622;42.724;23.250;2024-02-16T02:54:36;9.27;;;6.90;;
15049;SDS011;7622;42.724;23.250;2024-02-16T02:57:04;8.73;;;6.97;;
15049;SDS011;7622;42.724;23.250;2024-02-16T02:59:32;9.03;;;7.90;;
15049;SDS011;7622;42.724;23.250;2024-02-16T03:01:58;10.00;;;7.43;;
15049;SDS011;7622;42.724;23.250;2024-02-16T03:04:25;11.03;;;7.40;;
15049;SDS011;7622;42.724;23.250;2024-02-16T03:06:52;9.07;;;7.40;;
15049;SDS011;7622;42.724;23.250;2024-02-16T03:09:19;10.70;;;7.17;;
15049;SDS011;7622;42.724;23.250;2024-02-16T03:11:47;8.80;;;7.43;;
15049;SDS011;7622;42.724;23.250;2024-02-16T03:14:15;12.07;;;7.60;;
15049;SDS011;7622;42.724;23.250;2024-02-16T03:16:42;16.30;;;9.73;;
15049;SDS011;7622;42.724;23.250;2024-02-16T03:19:09;14.13;;;9.27;;
15049;SDS011;7622;42.724;23.250;2024-02-16T03:21:36;16.53;;;10.07;;
15049;SDS011;7622;42.724;23.250;2024-02-16T03:24:03;18.43;;;10.43;;
15049;SDS011;7622;42.724;23.250;2024-02-16T03:26:32;11.30;;;9.27;;
15049;SDS011;7622;42.724;23.250;2024-02-16T03:28:58;16.13;;;10.17;;
15049;SDS011;7622;42.724;23.250;2024-02-16T03:31:26;16.97;;;10.33;;
15049;SDS011;7622;42.724;23.250;2024-02-16T03:33:54;19.10;;;11.80;;
15049;SDS011;7622;42.724;23.250;2024-02-16T03:36:21;17.10;;;11.50;;
15049;SDS011;7622;42.724;23.250;2024-02-16T03:38:48;20.33;;;12.70;;
15049;SDS011;7622;42.724;23.250;2024-02-16T03:41:17;20.33;;;11.37;;
15049;SDS011;7622;42.724;23.250;2024-02-16T03:43:45;21.17;;;11.77;;
15049;SDS011;7622;42.724;23.250;2024-02-16T03:46:12;20.03;;;11.53;;
15049;SDS011;7622;42.724;23.250;2024-02-16T03:48:40;19.87;;;11.87;;
15049;SDS011;7622;42.724;23.250;2024-02-16T03:51:07;16.57;;;10.33;;
15049;SDS011;7622;42.724;23.250;2024-02-16T03:53:34;16.47;;;10.97;;
15049;SDS011;7622;42.724;23.250;2024-02-16T03:56:00;15.20;;;11.03;;
15049;SDS011;7622;42.724;23.250;2024-02-16T03:58:27;17.87;;;11.07;;
15049;SDS011;7622;42.724;23.250;2024-02-16T04:00:54;19.37;;;12.80;;
15049;SDS011;7622;42.724;23.250;2024-02-16T04:03:20;21.60;;;13.07;;
15049;SDS011;7622;42.724;23.250;2024-02-16T04:05:49;17.93;;;13.00;;
15049;SDS011;7622;42.724;23.250;2024-02-16T04:08:15;19.07;;;11.67;;
15049;SDS011;7622;42.724;23.250;2024-02-16T04:10:42;22.17;;;11.97;;
15049;SDS011;7622;42.724;23.250;2024-02-16T04:13:09;22.77;;;12.70;;
15049;SDS011;7622;42.724;23.250;2024-02-16T04:15:35;19.57;;;11.63;;
15049;SDS011;7622;42.724;23.250;2024-02-16T04:18:02;24.03;;;13.23;;
15049;SDS011;7622;42.724;23.250;2024-02-16T04:20:29;19.63;;;12.20;;
15049;SDS011;7622;42.724;23.250;2024-02-16T04:22:57;23.03;;;12.40;;
15049;SDS011;7622;42.724;23.250;2024-02-16T04:25:24;20.10;;;13.60;;
15049;SDS011;7622;42.724;23.250;2024-02-16T04:27:51;19.30;;;12.67;;
15049;SDS011;7622;42.724;23.250;2024-02-16T04:30:21;23.43;;;13.57;;
15049;SDS011;7622;42.724;23.250;2024-02-16T04:32:50;17.47;;;11.37;;
15049;SDS011;7622;42.724;23.250;2024-02-16T04:35:16;18.00;;;11.73;;
15049;SDS011;7622;42.724;23.250;2024-02-16T04:37:43;20.80;;;12.07;;
15049;SDS011;7622;42.724;23.250;2024-02-16T04:40:11;20.17;;;12.53;;
15049;SDS011;7622;42.724;23.250;2024-02-16T04:42:38;20.63;;;12.13;;
15049;SDS011;7622;42.724;23.250;2024-02-16T04:45:07;20.70;;;11.97;;
15049;SDS011;7622;42.724;23.250;2024-02-16T04:47:39;23.10;;;12.73;;
15049;SDS011;7622;42.724;23.250;2024-02-16T04:50:08;20.93;;;12.93;;
15049;SDS011;7622;42.724;23.250;2024-02-16T04:52:36;18.77;;;11.10;;
15049;SDS011;7622;42.724;23.250;2024-02-16T04:55:03;23.07;;;11.63;;
15049;SDS011;7622;42.724;23.250;2024-02-16T04:57:32;22.10;;;11.57;;
15049;SDS011;7622;42.724;23.250;2024-02-16T04:59:59;18.50;;;10.57;;
15049;SDS011;7622;42.724;23.250;2024-02-16T05:02:25;22.63;;;12.07;;
15049;SDS011;7622;42.724;23.250;2024-02-16T05:04:52;19.53;;;11.20;;
15049;SDS011;7622;42.724;23.250;2024-02-16T05:07:19;20.83;;;11.90;;
15049;SDS011;7622;42.724;23.250;2024-02-16T05:09:46;20.97;;;12.03;;
15049;SDS011;7622;42.724;23.250;2024-02-16T05:12:12;26.30;;;12.53;;
15049;SDS011;7622;42.724;23.250;2024-02-16T05:14:40;19.93;;;11.83;;
15049;SDS011;7622;42.724;23.250;2024-02-16T05:17:07;20.90;;;12.10;;
15049;SDS011;7622;42.724;23.250;2024-02-16T05:19:34;19.07;;;12.00;;
15049;SDS011;7622;42.724;23.250;2024-02-16T05:22:02;20.17;;;11.57;;
15049;SDS011;7622;42.724;23.250;2024-02-16T05:24:29;23.10;;;12.13;;
15049;SDS011;7622;42.724;23.250;2024-02-16T05:26:55;18.03;;;11.83;;
15049;SDS011;7622;42.724;23.250;2024-02-16T05:29:22;19.07;;;11.37;;
15049;SDS011;7622;42.724;23.250;2024-02-16T05:31:53;22.87;;;12.43;;
15049;SDS011;7622;42.724;23.250;2024-02-16T05:34:20;20.80;;;11.70;;
15049;SDS011;7622;42.724;23.250;2024-02-16T05:36:47;23.60;;;11.80;;
15049;SDS011;7622;42.724;23.250;2024-02-16T05:39:13;20.60;;;11.30;;
15049;SDS011;7622;42.724;23.250;2024-02-16T05:41:52;21.63;;;12.67;;
15049;SDS011;7622;42.724;23.250;2024-02-16T05:44:20;20.67;;;12.80;;
15049;SDS011;7622;42.724;23.250;2024-02-16T05:46:49;18.03;;;11.33;;
15049;SDS011;7622;42.724;23.250;2024-02-16T05:49:17;18.73;;;11.33;;
15049;SDS011;7622;42.724;23.250;2024-02-16T05:51:45;16.57;;;10.80;;
15049;SDS011;7622;42.724;23.250;2024-02-16T05:54:32;22.67;;;11.93;;
15049;SDS011;7622;42.724;23.250;2024-02-16T05:56:59;19.53;;;11.17;;
15049;SDS011;7622;42.724;23.250;2024-02-16T05:59:25;21.23;;;12.27;;
15049;SDS011;7622;42.724;23.250;2024-02-16T06:01:52;25.63;;;11.60;;
15049;SDS011;7622;42.724;23.250;2024-02-16T06:04:20;26.17;;;12.73;;
15049;SDS011;7622;42.724;23.250;2024-02-16T06:06:47;24.70;;;13.07;;
15049;SDS011;7622;42.724;23.250;2024-02-16T06:09:14;24.70;;;12.70;;
15049;SDS011;7622;42.724;23.250;2024-02-16T06:11:40;29.87;;;13.17;;
15049;SDS011;7622;42.724;23.250;2024-02-16T06:14:07;24.87;;;12.97;;
15049;SDS011;7622;42.724;23.250;2024-02-16T06:16:34;27.47;;;13.77;;
15049;SDS011;7622;42.724;23.250;2024-02-16T06:19:04;23.17;;;13.53;;
15049;SDS011;7622;42.724;23.250;2024-02-16T06:21:35;25.17;;;13.40;;
15049;SDS011;7622;42.724;23.250;2024-02-16T06:24:02;30.87;;;13.90;;
15049;SDS011;7622;42.724;23.250;2024-02-16T06:26:29;31.77;;;14.27;;
15049;SDS011;7622;42.724;23.250;2024-02-16T06:28:56;20.67;;;12.83;;
15049;SDS011;7622;42.724;23.250;2024-02-16T06:31:23;25.03;;;13.37;;
15049;SDS011;7622;42.724;23.250;2024-02-16T06:33:50;25.77;;;14.30;;
15049;SDS011;7622;42.724;23.250;2024-02-16T06:36:16;32.23;;;15.17;;
15049;SDS011;7622;42.724;23.250;2024-02-16T06:38:45;43.23;;;29.00;;
15049;SDS011;7622;42.724;23.250;2024-02-16T06:41:12;69.43;;;36.57;;
15049;SDS011;7622;42.724;23.250;2024-02-16T06:43:39;44.10;;;24.27;;
15049;SDS011;7622;42.724;23.250;2024-02-16T06:46:05;43.27;;;21.17;;
15049;SDS011;7622;42.724;23.250;2024-02-16T06:48:32;50.10;;;21.83;;
15049;SDS011;7622;42.724;23.250;2024-02-16T06:50:59;40.03;;;22.43;;
15049;SDS011;7622;42.724;23.250;2024-02-16T06:53:25;44.77;;;23.87;;
15049;SDS011;7622;42.724;23.250;2024-02-16T06:55:53;45.80;;;24.90;;
15049;SDS011;7622;42.724;23.250;2024-02-16T06:58:20;47.67;;;22.40;;
15049;SDS011;7622;42.724;23.250;2024-02-16T07:00:47;37.07;;;19.73;;
15049;SDS011;7622;42.724;23.250;2024-02-16T07:03:15;38.67;;;21.03;;
15049;SDS011;7622;42.724;23.250;2024-02-16T07:05:43;40.80;;;22.27;;
15049;SDS011;7622;42.724;23.250;2024-02-16T07:08:10;46.33;;;23.27;;
15049;SDS011;7622;42.724;23.250;2024-02-16T07:10:36;40.03;;;22.43;;
15049;SDS011;7622;42.724;23.250;2024-02-16T07:13:06;43.80;;;21.43;;
15049;SDS011;7622;42.724;23.250;2024-02-16T07:15:32;37.83;;;20.07;;
15049;SDS011;7622;42.724;23.250;2024-02-16T07:17:59;30.63;;;18.80;;
15049;SDS011;7622;42.724;23.250;2024-02-16T07:20:26;32.93;;;18.50;;
15049;SDS011;7622;42.724;23.250;2024-02-16T07:22:53;40.10;;;18.23;;
15049;SDS011;7622;42.724;23.250;2024-02-16T07:25:19;33.97;;;16.80;;
15049;SDS011;7622;42.724;23.250;2024-02-16T07:27:46;30.27;;;16.83;;
15049;SDS011;7622;42.724;23.250;2024-02-16T07:30:14;22.50;;;15.43;;
15049;SDS011;7622;42.724;23.250;2024-02-16T07:32:41;31.63;;;16.93;;
15049;SDS011;7622;42.724;23.250;2024-02-16T07:35:10;29.00;;;16.20;;
15049;SDS011;7622;42.724;23.250;2024-02-16T07:37:38;31.17;;;16.57;;
15049;SDS011;7622;42.724;23.250;2024-02-16T07:40:05;38.60;;;16.57;;
15049;SDS011;7622;42.724;23.250;2024-02-16T07:42:34;27.73;;;15.97;;
15049;SDS011;7622;42.724;23.250;2024-02-16T07:45:04;30.80;;;17.17;;
15049;SDS011;7622;42.724;23.250;2024-02-16T07:47:33;31.80;;;15.67;;
15049;SDS011;7622;42.724;23.250;2024-02-16T07:49:59;25.40;;;16.03;;
15049;SDS011;7622;42.724;23.250;2024-02-16T07:52:26;29.60;;;17.67;;
15049;SDS011;7622;42.724;23.250;2024-02-16T07:54:53;19.60;;;12.60;;
15049;SDS011;7622;42.724;23.250;2024-02-16T07:57:19;26.77;;;14.23;;
15049;SDS011;7622;42.724;23.250;2024-02-16T07:59:46;25.47;;;15.73;;
15049;SDS011;7622;42.724;23.250;2024-02-16T08:02:13;25.93;;;14.87;;
15049;SDS011;7622;42.724;23.250;2024-02-16T08:04:42;25.27;;;14.30;;
15049;SDS011;7622;42.724;23.250;2024-02-16T08:07:09;25.67;;;15.17;;
15049;SDS011;7622;42.724;23.250;2024-02-16T08:09:35;31.90;;;13.77;;
15049;SDS011;7622;42.724;23.250;2024-02-16T08:12:02;16.53;;;10.90;;
15049;SDS011;7622;42.724;23.250;2024-02-16T08:14:32;19.20;;;11.63;;
15049;SDS011;7622;42.724;23.250;2024-02-16T08:16:58;22.10;;;10.83;;
15049;SDS011;7622;42.724;23.250;2024-02-16T08:19:26;28.63;;;10.90;;
15049;SDS011;7622;42.724;23.250;2024-02-16T08:21:59;17.83;;;11.17;;
15049;SDS011;7622;42.724;23.250;2024-02-16T08:24:26;20.13;;;10.87;;
15049;SDS011;7622;42.724;23.250;2024-02-16T08:26:53;18.30;;;9.97;;
15049;SDS011;7622;42.724;23.250;2024-02-16T08:29:21;14.57;;;10.13;;
15049;SDS011;7622;42.724;23.250;2024-02-16T08:31:48;15.63;;;10.30;;
15049;SDS011;7622;42.724;23.250;2024-02-16T08:34:16;12.67;;;9.53;;
15049;SDS011;7622;42.724;23.250;2024-02-16T08:36:43;14.50;;;9.57;;
15049;SDS011;7622;42.724;23.250;2024-02-16T08:39:11;13.50;;;9.20;;
15049;SDS011;7622;42.724;23.250;2024-02-16T08:41:38;11.77;;;8.27;;
15049;SDS011;7622;42.724;23.250;2024-02-16T08:44:05;17.83;;;7.67;;
15049;SDS011;7622;42.724;23.250;2024-02-16T08:46:34;11.53;;;7.73;;
15049;SDS011;7622;42.724;23.250;2024-02-16T08:49:01;8.80;;;6.97;;
15049;SDS011;7622;42.724;23.250;2024-02-16T08:51:28;9.97;;;7.47;;
15049;SDS011;7622;42.724;23.250;2024-02-16T08:53:55;12.33;;;7.77;;
15049;SDS011;7622;42.724;23.250;2024-02-16T08:56:23;10.20;;;7.70;;
15049;SDS011;7622;42.724;23.250;2024-02-16T08:58:49;9.00;;;7.40;;
15049;SDS011;7622;42.724;23.250;2024-02-16T09:01:16;9.00;;;7.67;;
15049;SDS011;7622;42.724;23.250;2024-02-16T09:03:43;14.97;;;8.27;;
15049;SDS011;7622;42.724;23.250;2024-02-16T09:06:10;9.90;;;7.97;;
15049;SDS011;7622;42.724;23.250;2024-02-16T09:08:38;8.77;;;7.53;;
15049;SDS011;7622;42.724;23.250;2024-02-16T09:11:05;12.07;;;8.67;;
15049;SDS011;7622;42.724;23.250;2024-02-16T09:13:33;9.30;;;7.63;;
15049;SDS011;7622;42.724;23.250;2024-02-16T09:16:00;9.93;;;7.53;;
15049;SDS011;7622;42.724;23.250;2024-02-16T09:18:28;10.63;;;7.83;;
15049;SDS011;7622;42.724;23.250;2024-02-16T09:34:38;8.20;;;7.40;;
15049;SDS011;7622;42.724;23.250;2024-02-16T09:37:05;10.27;;;8.17;;
15049;SDS011;7622;42.724;23.250;2024-02-16T09:39:32;8.13;;;5.77;;
15049;SDS011;7622;42.724;23.250;2024-02-16T09:41:59;6.83;;;5.43;;
15049;SDS011;7622;42.724;23.250;2024-02-16T09:44:26;6.07;;;5.63;;
15049;SDS011;7622;42.724;23.250;2024-02-16T09:46:54;5.70;;;5.23;;
15049;SDS011;7622;42.724;23.250;2024-02-16T09:49:22;6.97;;;5.17;;
15049;SDS011;7622;42.724;23.250;2024-02-16T09:51:50;7.97;;;5.73;;
15049;SDS011;7622;42.724;23.250;2024-02-16T09:54:16;7.60;;;5.47;;
15049;SDS011;7622;42.724;23.250;2024-02-16T09:56:43;6.13;;;5.50;;
15049;SDS011;7622;42.724;23.250;2024-02-16T09:59:11;5.30;;;4.80;;
15049;SDS011;7622;42.724;23.250;2024-02-16T10:01:38;9.93;;;5.63;;
15049;SDS011;7622;42.724;23.250;2024-02-16T10:04:08;14.77;;;5.83;;
15049;SDS011;7622;42.724;23.250;2024-02-16T10:06:45;8.47;;;5.20;;
15049;SDS011;7622;42.724;23.250;2024-02-16T10:09:23;4.60;;;4.20;;
15049;SDS011;7622;42.724;23.250;2024-02-16T10:11:49;5.40;;;4.90;;
15049;SDS011;7622;42.724;23.250;2024-02-16T10:14:15;7.07;;;4.87;;
15049;SDS011;7622;42.724;23.250;2024-02-16T10:16:44;5.17;;;4.70;;
15049;SDS011;7622;42.724;23.250;2024-02-16T10:19:11;6.37;;;4.60;;
15049;SDS011;7622;42.724;23.250;2024-02-16T10:21:37;5.20;;;4.17;;
15049;SDS011;7622;42.724;23.250;2024-02-16T10:24:06;5.67;;;4.60;;
15049;SDS011;7622;42.724;23.250;2024-02-16T10:26:34;5.67;;;5.13;;
15049;SDS011;7622;42.724;23.250;2024-02-16T10:29:03;5.20;;;4.80;;
15049;SDS011;7622;42.724;23.250;2024-02-16T10:31:30;4.87;;;4.37;;
15049;SDS011;7622;42.724;23.250;2024-02-16T10:33:58;5.00;;;4.60;;
15049;SDS011;7622;42.724;23.250;2024-02-16T10:36:27;6.00;;;5.20;;
15049;SDS011;7622;42.724;23.250;2024-02-16T10:38:54;10.90;;;5.70;;
15049;SDS011;7622;42.724;23.250;2024-02-16T10:41:23;6.40;;;5.73;;
15049;SDS011;7622;42.724;23.250;2024-02-16T10:43:54;6.37;;;5.77;;
15049;SDS011;7622;42.724;23.250;2024-02-16T10:46:21;5.00;;;4.60;;
15049;SDS011;7622;42.724;23.250;2024-02-16T10:48:49;4.47;;;4.17;;
15049;SDS011;7622;42.724;23.250;2024-02-16T10:51:16;6.17;;;4.10;;
15049;SDS011;7622;42.724;23.250;2024-02-16T10:53:46;4.73;;;4.13;;
15049;SDS011;7622;42.724;23.250;2024-02-16T10:56:13;7.23;;;3.73;;
15049;SDS011;7622;42.724;23.250;2024-02-16T10:58:40;5.40;;;4.00;;
15049;SDS011;7622;42.724;23.250;2024-02-16T11:01:09;6.60;;;4.20;;
15049;SDS011;7622;42.724;23.250;2024-02-16T11:03:37;5.33;;;4.93;;
15049;SDS011;7622;42.724;23.250;2024-02-16T11:06:11;5.13;;;3.70;;
15049;SDS011;7622;42.724;23.250;2024-02-16T11:08:41;6.00;;;4.53;;
15049;SDS011;7622;42.724;23.250;2024-02-16T11:11:07;5.77;;;4.27;;
15049;SDS011;7622;42.724;23.250;2024-02-16T11:13:37;5.00;;;4.60;;
15049;SDS011;7622;42.724;23.250;2024-02-16T11:16:06;5.10;;;4.60;;
15049;SDS011;7622;42.724;23.250;2024-02-16T11:18:38;4.97;;;4.53;;
15049;SDS011;7622;42.724;23.250;2024-02-16T11:21:06;5.63;;;4.23;;
15049;SDS011;7622;42.724;23.250;2024-02-16T11:23:34;5.70;;;4.23;;
15049;SDS011;7622;42.724;23.250;2024-02-16T11:26:02;4.27;;;3.90;;
15049;SDS011;7622;42.724;23.250;2024-02-16T11:28:31;4.43;;;4.13;;
15049;SDS011;7622;42.724;23.250;2024-02-16T11:30:59;5.73;;;4.03;;
15049;SDS011;7622;42.724;23.250;2024-02-16T11:33:26;4.47;;;4.17;;
15049;SDS011;7622;42.724;23.250;2024-02-16T11:35:55;5.30;;;4.90;;
15049;SDS011;7622;42.724;23.250;2024-02-16T11:38:22;4.63;;;4.23;;
15049;SDS011;7622;42.724;23.250;2024-02-16T11:40:53;4.63;;;4.33;;
15049;SDS011;7622;42.724;23.250;2024-02-16T11:43:20;4.40;;;3.53;;
15049;SDS011;7622;42.724;23.250;2024-02-16T11:45:48;5.00;;;4.33;;
15049;SDS011;7622;42.724;23.250;2024-02-16T11:48:18;4.53;;;4.07;;
15049;SDS011;7622;42.724;23.250;2024-02-16T11:50:46;5.03;;;4.50;;
15049;SDS011;7622;42.724;23.250;2024-02-16T11:53:16;4.30;;;4.00;;
15049;SDS011;7622;42.724;23.250;2024-02-16T11:55:47;5.90;;;4.47;;
15049;SDS011;7622;42.724;23.250;2024-02-16T11:58:15;4.10;;;3.80;;
15049;SDS011;7622;42.724;23.250;2024-02-16T12:00:43;5.63;;;4.07;;
15049;SDS011;7622;42.724;23.250;2024-02-16T12:03:10;5.03;;;3.90;;
15049;SDS011;7622;42.724;23.250;2024-02-16T12:05:37;6.93;;;4.00;;
15049;SDS011;7622;42.724;23.250;2024-02-16T12:08:07;5.00;;;4.30;;
15049;SDS011;7622;42.724;23.250;2024-02-16T12:10:38;5.60;;;4.07;;
15049;SDS011;7622;42.724;23.250;2024-02-16T12:13:04;4.87;;;4.10;;
15049;SDS011;7622;42.724;23.250;2024-02-16T12:15:31;4.27;;;3.87;;
15049;SDS011;7622;42.724;23.250;2024-02-16T12:17:58;4.33;;;4.00;;
15049;SDS011;7622;42.724;23.250;2024-02-16T12:20:26;4.37;;;3.33;;
15049;SDS011;7622;42.724;23.250;2024-02-16T12:22:52;4.40;;;4.00;;
15049;SDS011;7622;42.724;23.250;2024-02-16T12:25:19;4.03;;;3.73;;
15049;SDS011;7622;42.724;23.250;2024-02-16T12:27:47;3.80;;;3.50;;
15049;SDS011;7622;42.724;23.250;2024-02-16T12:30:15;7.20;;;3.30;;
15049;SDS011;7622;42.724;23.250;2024-02-16T12:32:42;3.87;;;3.57;;
15049;SDS011;7622;42.724;23.250;2024-02-16T12:35:13;4.33;;;4.03;;
15049;SDS011;7622;42.724;23.250;2024-02-16T12:37:43;6.33;;;4.17;;
15049;SDS011;7622;42.724;23.250;2024-02-16T12:40:11;4.67;;;4.03;;
15049;SDS011;7622;42.724;23.250;2024-02-16T12:42:38;4.53;;;4.10;;
15049;SDS011;7622;42.724;23.250;2024-02-16T12:45:06;4.10;;;3.80;;
15049;SDS011;7622;42.724;23.250;2024-02-16T12:47:33;4.67;;;4.37;;
15049;SDS011;7622;42.724;23.250;2024-02-16T12:50:00;5.33;;;4.80;;
15049;SDS011;7622;42.724;23.250;2024-02-16T12:52:27;4.10;;;3.80;;
15049;SDS011;7622;42.724;23.250;2024-02-16T12:54:54;4.93;;;3.77;;
15049;SDS011;7622;42.724;23.250;2024-02-16T12:57:24;4.17;;;3.87;;
15049;SDS011;7622;42.724;23.250;2024-02-16T12:59:50;4.87;;;3.50;;
15049;SDS011;7622;42.724;23.250;2024-02-16T13:02:18;4.30;;;3.90;;
15049;SDS011;7622;42.724;23.250;2024-02-16T13:04:45;3.80;;;3.50;;
15049;SDS011;7622;42.724;23.250;2024-02-16T13:07:12;4.17;;;3.83;;
15049;SDS011;7622;42.724;23.250;2024-02-16T13:09:38;3.90;;;3.60;;
15049;SDS011;7622;42.724;23.250;2024-02-16T13:12:06;4.33;;;4.00;;
15049;SDS011;7622;42.724;23.250;2024-02-16T13:14:33;6.40;;;3.63;;
15049;SDS011;7622;42.724;23.250;2024-02-16T13:17:00;4.40;;;4.10;;
15049;SDS011;7622;42.724;23.250;2024-02-16T13:19:28;4.00;;;3.70;;
15049;SDS011;7622;42.724;23.250;2024-02-16T13:21:54;4.40;;;3.70;;
15049;SDS011;7622;42.724;23.250;2024-02-16T13:24:21;3.70;;;3.40;;
15049;SDS011;7622;42.724;23.250;2024-02-16T13:26:48;4.10;;;3.80;;
15049;SDS011;7622;42.724;23.250;2024-02-16T13:29:14;6.00;;;3.70;;
15049;SDS011;7622;42.724;23.250;2024-02-16T13:31:41;13.97;;;4.27;;
15049;SDS011;7622;42.724;23.250;2024-02-16T13:34:08;3.87;;;3.23;;
15049;SDS011;7622;42.724;23.250;2024-02-16T13:36:36;5.70;;;3.80;;
15049;SDS011;7622;42.724;23.250;2024-02-16T13:39:02;3.67;;;3.37;;
15049;SDS011;7622;42.724;23.250;2024-02-16T13:41:30;4.37;;;3.97;;
15049;SDS011;7622;42.724;23.250;2024-02-16T13:43:58;5.00;;;3.60;;
15049;SDS011;7622;42.724;23.250;2024-02-16T13:46:24;7.33;;;4.20;;
15049;SDS011;7622;42.724;23.250;2024-02-16T13:48:51;6.50;;;4.53;;
15049;SDS011;7622;42.724;23.250;2024-02-16T13:51:18;4.33;;;4.03;;
15049;SDS011;7622;42.724;23.250;2024-02-16T13:53:46;5.37;;;4.00;;
15049;SDS011;7622;42.724;23.250;2024-02-16T13:56:13;5.40;;;4.90;;
15049;SDS011;7622;42.724;23.250;2024-02-16T13:58:40;10.47;;;4.77;;
15049;SDS011;7622;42.724;23.250;2024-02-16T14:01:07;4.93;;;4.30;;
15049;SDS011;7622;42.724;23.250;2024-02-16T14:03:34;5.07;;;3.97;;
15049;SDS011;7622;42.724;23.250;2024-02-16T14:06:01;3.87;;;3.57;;
15049;SDS011;7622;42.724;23.250;2024-02-16T14:08:29;5.07;;;4.10;;
15049;SDS011;7622;42.724;23.250;2024-02-16T14:10:57;4.53;;;4.23;;
15049;SDS011;7622;42.724;23.250;2024-02-16T14:13:24;4.40;;;4.03;;
15049;SDS011;7622;42.724;23.250;2024-02-16T14:15:50;4.60;;;4.30;;
15049;SDS011;7622;42.724;23.250;2024-02-16T14:18:17;4.30;;;3.90;;
15049;SDS011;7622;42.724;23.250;2024-02-16T14:20:44;4.53;;;4.13;;
15049;SDS011;7622;42.724;23.250;2024-02-16T14:23:10;4.60;;;3.50;;
15049;SDS011;7622;42.724;23.250;2024-02-16T14:25:37;3.50;;;3.20;;
15049;SDS011;7622;42.724;23.250;2024-02-16T14:28:06;4.37;;;3.93;;
15049;SDS011;7622;42.724;23.250;2024-02-16T14:30:33;5.73;;;3.50;;
15049;SDS011;7622;42.724;23.250;2024-02-16T14:33:00;3.90;;;3.53;;
15049;SDS011;7622;42.724;23.250;2024-02-16T14:35:29;4.87;;;4.07;;
15049;SDS011;7622;42.724;23.250;2024-02-16T14:37:56;4.40;;;4.00;;
15049;SDS011;7622;42.724;23.250;2024-02-16T14:40:23;3.80;;;3.50;;
15049;SDS011;7622;42.724;23.250;2024-02-16T14:42:50;3.40;;;3.10;;
15049;SDS011;7622;42.724;23.250;2024-02-16T14:45:18;5.80;;;3.07;;
15049;SDS011;7622;42.724;23.250;2024-02-16T14:47:46;3.20;;;2.90;;
15049;SDS011;7622;42.724;23.250;2024-02-16T14:50:13;5.13;;;3.70;;
15049;SDS011;7622;42.724;23.250;2024-02-16T14:52:41;4.13;;;3.83;;
15049;SDS011;7622;42.724;23.250;2024-02-16T14:55:08;4.37;;;3.97;;
15049;SDS011;7622;42.724;23.250;2024-02-16T14:57:35;4.37;;;4.07;;
15049;SDS011;7622;42.724;23.250;2024-02-16T15:00:02;4.30;;;3.90;;
15049;SDS011;7622;42.724;23.250;2024-02-16T15:02:31;7.53;;;3.87;;
15049;SDS011;7622;42.724;23.250;2024-02-16T15:04:57;3.47;;;3.17;;